Time;durP1;ratioP1;P1;durP2;ratioP2;P2;SDS_P1;SDS_P2;PMS_P1;PMS_P2;Temp;Humidity;BMP_temperature;BMP_pressure;BME280_temperature;BME280_humidity;BME280_pressure;Samples;Min_cycle;Max_cycle;Signal;HPM_P1;HPM_P2
2022/04/24 07:50:02;;;;;;;0.40;0.40;;;;;;;7.17;100.00;97281.50;5139121;27;20374;-76
2022/04/24 07:52:29;;;;;;;0.68;0.50;;;;;;;7.32;100.00;97292.09;5104995;28;20422;-76
2022/04/24 07:54:55;;;;;;;0.55;0.55;;;;;;;7.34;100.00;97276.47;5106762;28;20070;-76
2022/04/24 07:57:22;;;;;;;0.60;0.60;;;;;;;7.50;100.00;97296.81;5102860;28;20105;-76
2022/04/24 07:59:48;;;;;;;0.60;0.60;;;;;;;7.43;100.00;97275.22;5105652;28;20505;-76
2022/04/24 08:02:15;;;;;;;0.45;0.45;;;;;;;7.48;100.00;97297.03;5107173;28;20064;-76
2022/04/24 08:04:41;;;;;;;0.40;0.40;;;;;;;7.51;100.00;97288.53;5107821;28;20431;-76
2022/04/24 08:07:09;;;;;;;1.27;0.50;;;;;;;7.39;100.00;97282.94;5107859;28;20051;-76
2022/04/24 08:09:36;;;;;;;0.73;0.60;;;;;;;7.40;100.00;97289.97;5106788;28;20077;-76
2022/04/24 08:12:04;;;;;;;1.55;0.70;;;;;;;7.45;100.00;97297.44;5107200;28;20055;-76
2022/04/24 08:14:30;;;;;;;0.70;0.70;;;;;;;7.58;100.00;97304.72;5101028;27;20055;-76
2022/04/24 08:16:57;;;;;;;0.50;0.50;;;;;;;7.56;100.00;97306.81;5107488;28;20051;-76
2022/04/24 08:19:23;;;;;;;1.83;0.70;;;;;;;7.48;100.00;97299.72;5107074;28;20488;-76
2022/04/24 08:21:50;;;;;;;1.63;0.60;;;;;;;7.41;100.00;97296.22;5107465;28;20067;-76
2022/04/24 08:24:18;;;;;;;0.52;0.52;;;;;;;7.51;100.00;97303.91;5103700;28;20050;-76
2022/04/24 08:26:44;;;;;;;1.00;0.65;;;;;;;7.48;100.00;97305.13;5105195;28;20136;-76
2022/04/24 08:29:11;;;;;;;2.53;0.75;;;;;;;7.42;100.00;97295.16;5107034;28;20043;-76
2022/04/24 08:31:38;;;;;;;0.80;0.70;;;;;;;7.59;100.00;97322.63;5101514;28;20048;-76
2022/04/24 08:34:04;;;;;;;1.20;1.10;;;;;;;7.55;100.00;97318.66;5106276;28;20083;-76
2022/04/24 08:36:31;;;;;;;0.75;0.63;;;;;;;7.59;100.00;97318.03;5107171;28;20047;-76
2022/04/24 08:38:57;;;;;;;0.75;0.45;;;;;;;7.54;100.00;97282.69;5102121;28;20048;-76
2022/04/24 08:41:27;;;;;;;2.83;0.70;;;;;;;7.75;100.00;97327.56;5106248;28;20044;-76
2022/04/24 08:43:56;;;;;;;3.92;1.10;;;;;;;7.72;100.00;97330.69;5106109;28;20052;-76
2022/04/24 08:46:23;;;;;;;3.97;2.08;;;;;;;7.68;100.00;97317.78;5107331;28;20135;-76
2022/04/24 08:48:50;;;;;;;2.20;1.15;;;;;;;7.75;100.00;97338.41;5101215;28;20067;-76
2022/04/24 08:51:20;;;;;;;0.95;0.95;;;;;;;7.73;100.00;97337.75;5101378;28;20051;-76
2022/04/24 08:53:48;;;;;;;1.67;0.65;;;;;;;7.83;100.00;97337.34;5102081;28;20091;-76
2022/04/24 08:56:14;;;;;;;2.35;0.90;;;;;;;7.81;100.00;97339.41;5099831;28;20509;-76
2022/04/24 08:58:43;;;;;;;0.70;0.57;;;;;;;7.79;100.00;97331.50;5106181;28;20872;-76
2022/04/24 09:01:09;;;;;;;0.90;0.70;;;;;;;7.89;100.00;97349.16;5094502;28;20047;-76
2022/04/24 09:03:36;;;;;;;2.28;0.52;;;;;;;8.05;100.00;97361.41;5092358;28;20048;-77
2022/04/24 09:06:03;;;;;;;4.57;0.70;;;;;;;8.01;100.00;97341.22;5093222;28;20063;-76
2022/04/24 09:08:30;;;;;;;0.88;0.70;;;;;;;7.88;100.00;97347.50;5092134;28;20051;-76
2022/04/24 09:10:59;;;;;;;0.60;0.60;;;;;;;7.96;100.00;97358.09;5086372;28;20507;-76
2022/04/24 09:13:27;;;;;;;1.45;0.70;;;;;;;7.68;100.00;97347.53;5092519;28;20054;-76
2022/04/24 09:15:59;;;;;;;1.95;1.05;;;;;;;7.88;100.00;97367.28;5092138;28;20104;-77
2022/04/24 09:18:37;;;;;;;1.42;0.90;;;;;;;7.85;100.00;97361.47;5085308;28;20131;-76
2022/04/24 09:21:04;;;;;;;1.27;1.17;;;;;;;7.71;100.00;97331.75;5092606;28;20503;-76
2022/04/24 09:23:35;;;;;;;1.13;1.05;;;;;;;8.05;100.00;97364.09;5092052;28;20114;-76
2022/04/24 09:26:02;;;;;;;1.05;0.90;;;;;;;8.03;100.00;97366.22;5080872;28;20063;-76
2022/04/24 09:28:36;;;;;;;1.10;1.00;;;;;;;7.84;100.00;97348.97;5090037;28;20543;-76
2022/04/24 09:31:05;;;;;;;1.40;0.98;;;;;;;8.00;100.00;97358.53;5090451;28;20491;-76
2022/04/24 09:33:40;;;;;;;1.05;0.95;;;;;;;7.87;100.00;97337.72;5081427;28;20044;-76
2022/04/24 09:36:07;;;;;;;1.30;1.10;;;;;;;7.91;100.00;97338.97;5090070;28;20056;-76
2022/04/24 09:38:40;;;;;;;2.10;1.00;;;;;;;8.16;100.00;97377.00;5085425;28;20044;-76
2022/04/24 09:41:16;;;;;;;2.67;0.93;;;;;;;7.94;100.00;97347.47;5088790;28;20495;-76
2022/04/24 09:43:43;;;;;;;1.48;1.10;;;;;;;8.22;100.00;97386.13;5082418;28;20090;-76
2022/04/24 09:46:11;;;;;;;1.08;0.90;;;;;;;8.23;100.00;97368.84;5090043;28;20130;-76
2022/04/24 09:48:37;;;;;;;0.88;0.70;;;;;;;8.28;100.00;97369.00;5075816;28;20088;-76
2022/04/24 09:51:05;;;;;;;2.17;1.17;;;;;;;8.06;100.00;97374.72;5089801;28;20138;-76
2022/04/24 09:53:35;;;;;;;4.00;1.50;;;;;;;8.12;100.00;97367.63;5089153;28;20048;-76
2022/04/24 09:56:03;;;;;;;3.55;1.40;;;;;;;8.22;100.00;97392.38;5089013;28;20059;-76
2022/04/24 09:58:30;;;;;;;2.47;1.45;;;;;;;8.19;100.00;97375.72;5089727;28;20075;-76
2022/04/24 10:00:57;;;;;;;1.85;1.35;;;;;;;8.26;100.00;97387.38;5090206;28;20056;-77
2022/04/24 10:03:25;;;;;;;3.15;1.17;;;;;;;8.07;100.00;97364.72;5087581;28;20056;-76
2022/04/24 10:05:52;;;;;;;2.80;1.40;;;;;;;8.11;100.00;97372.22;5086408;28;20059;-76
2022/04/24 10:08:19;;;;;;;1.83;1.10;;;;;;;8.19;100.00;97381.97;5089359;28;20133;-76
2022/04/24 10:10:46;;;;;;;1.65;0.77;;;;;;;8.15;100.00;97381.56;5088232;28;20055;-76
2022/04/24 10:13:14;;;;;;;0.60;0.60;;;;;;;8.12;100.00;97382.00;5088041;28;20427;-76
2022/04/24 10:15:49;;;;;;;0.95;0.73;;;;;;;8.07;100.00;97380.94;5089482;28;20060;-76
2022/04/24 10:18:35;;;;;;;2.15;0.93;;;;;;;8.18;100.00;97399.25;5085390;28;20063;-76
2022/04/24 10:21:18;;;;;;;2.92;0.90;;;;;;;8.13;100.00;97399.91;5087993;28;20055;-76
2022/04/24 10:23:44;;;;;;;0.90;0.73;;;;;;;8.06;100.00;97388.25;5088150;28;20044;-76
2022/04/24 10:26:18;;;;;;;3.83;1.17;;;;;;;8.29;100.00;97406.69;5084165;28;20193;-77
2022/04/24 10:28:46;;;;;;;4.07;0.80;;;;;;;8.26;100.00;97398.19;5087343;28;20930;-76
2022/04/24 10:31:13;;;;;;;1.42;0.90;;;;;;;8.21;100.00;97398.84;5087813;28;20414;-76
2022/04/24 10:33:52;;;;;;;1.73;0.80;;;;;;;8.08;100.00;97388.84;5086336;28;20067;-76
2022/04/24 10:36:20;;;;;;;0.93;0.80;;;;;;;8.38;100.00;97404.59;5079752;28;20106;-75
2022/04/24 10:38:48;;;;;;;0.60;0.60;;;;;;;8.24;100.00;97389.47;5083799;28;20044;-77
2022/04/24 10:41:16;;;;;;;0.90;0.80;;;;;;;8.34;100.00;97408.81;5087988;28;20043;-76
2022/04/24 10:43:46;;;;;;;7.40;0.60;;;;;;;8.57;100.00;97415.63;5088081;28;20330;-76
2022/04/24 10:46:17;;;;;;;1.95;1.00;;;;;;;8.36;100.00;97392.34;5087078;28;20043;-77
2022/04/24 10:48:46;;;;;;;1.20;0.90;;;;;;;8.41;100.00;97411.47;5084628;28;20052;-76
2022/04/24 10:51:13;;;;;;;0.75;0.75;;;;;;;8.43;100.00;97418.34;5086664;28;20366;-76
2022/04/24 10:53:50;;;;;;;1.70;0.98;;;;;;;8.47;100.00;97427.72;5086365;28;20044;-76
2022/04/24 10:56:17;;;;;;;2.53;1.00;;;;;;;8.57;100.00;97427.28;5077359;28;20055;-76
2022/04/24 10:58:43;;;;;;;1.08;0.73;;;;;;;8.59;100.00;97419.75;5088520;28;20044;-76
2022/04/24 11:01:13;;;;;;;1.23;0.93;;;;;;;8.42;100.00;97422.09;5088783;28;20051;-76
2022/04/24 11:03:41;;;;;;;2.03;0.70;;;;;;;8.50;100.00;97413.75;5083414;28;20052;-76
2022/04/24 11:06:19;;;;;;;0.88;0.70;;;;;;;8.65;100.00;97435.16;5088296;28;20063;-76
2022/04/24 11:08:45;;;;;;;5.40;0.90;;;;;;;8.78;100.00;97426.13;5087559;28;20043;-76
2022/04/24 11:11:14;;;;;;;1.08;0.98;;;;;;;8.85;100.00;97439.63;5097924;28;20130;-76
2022/04/24 11:13:41;;;;;;;4.38;1.05;;;;;;;8.93;100.00;97420.44;5087179;28;20051;-76
2022/04/24 11:16:08;;;;;;;1.73;0.90;;;;;;;8.94;100.00;97415.84;5080233;28;20415;-76
2022/04/24 11:18:35;;;;;;;1.60;0.93;;;;;;;8.93;100.00;97403.34;5081639;28;20043;-76
2022/04/24 11:21:03;;;;;;;1.13;0.82;;;;;;;9.06;100.00;97435.78;5083432;28;20062;-77
2022/04/24 11:23:32;;;;;;;1.45;0.77;;;;;;;8.93;100.00;97435.88;5078772;28;20113;-76
2022/04/24 11:26:01;;;;;;;2.65;1.42;;;;;;;8.91;100.00;97422.50;5074787;28;20054;-76
2022/04/24 11:28:35;;;;;;;2.70;1.60;;;;;;;9.05;100.00;97444.97;5086798;28;20040;-76
2022/04/24 11:31:09;;;;;;;6.22;1.70;;;;;;;9.07;100.00;97417.66;5087722;28;20054;-76
2022/04/24 11:33:36;;;;;;;1.55;1.05;;;;;;;9.19;100.00;97443.00;5078062;28;20036;-76
2022/04/24 11:36:04;;;;;;;1.13;1.00;;;;;;;9.15;100.00;97442.63;5079225;28;20052;-76
2022/04/24 11:38:33;;;;;;;2.67;0.90;;;;;;;9.26;100.00;97440.25;5081895;28;20044;-76
2022/04/24 11:41:03;;;;;;;1.42;0.88;;;;;;;9.18;100.00;97434.06;5086716;28;20051;-76
2022/04/24 11:43:30;;;;;;;2.05;1.08;;;;;;;9.16;100.00;97446.97;5078505;28;20770;-76
2022/04/24 11:51:26;;;;;;;1.52;1.15;;;;;;;9.27;100.00;97423.75;5086652;28;20519;-76
2022/04/24 11:53:55;;;;;;;0.73;0.73;;;;;;;9.26;100.00;97432.09;5085135;28;20487;-76
2022/04/24 11:56:23;;;;;;;0.90;0.70;;;;;;;9.29;100.00;97442.50;5087837;28;20052;-76
2022/04/24 11:58:49;;;;;;;0.60;0.60;;;;;;;9.39;100.00;97454.56;5086378;28;20060;-76
2022/04/24 12:01:17;;;;;;;1.52;0.95;;;;;;;9.46;100.00;97453.69;5087740;28;20051;-76
2022/04/24 12:03:46;;;;;;;1.92;1.08;;;;;;;9.45;100.00;97430.31;5086973;28;20098;-76
2022/04/24 12:06:13;;;;;;;1.80;1.00;;;;;;;9.59;100.00;97456.31;5085036;28;20059;-76
2022/04/24 12:08:48;;;;;;;1.65;1.40;;;;;;;9.67;100.00;97449.78;5081508;28;20097;-76
2022/04/24 12:11:26;;;;;;;5.30;1.08;;;;;;;9.76;100.00;97455.75;5082744;28;20059;-76
2022/04/24 12:14:03;;;;;;;3.25;0.90;;;;;;;9.94;100.00;97458.50;5082680;28;20051;-76
2022/04/24 12:16:30;;;;;;;3.88;1.13;;;;;;;10.14;100.00;97455.59;5083054;28;20046;-76
2022/04/24 12:18:58;;;;;;;1.50;1.02;;;;;;;10.00;100.00;97446.75;5087409;28;20079;-76
2022/04/24 12:21:25;;;;;;;0.70;0.68;;;;;;;10.16;100.00;97448.09;5080831;28;20044;-76
2022/04/24 12:23:52;;;;;;;1.35;1.05;;;;;;;10.16;100.00;97450.78;5081815;28;20078;-76
2022/04/24 12:26:18;;;;;;;1.13;0.70;;;;;;;10.10;100.00;97457.09;5086128;28;20047;-76
2022/04/24 12:28:47;;;;;;;1.55;0.77;;;;;;;10.04;100.00;97464.28;5085607;28;20525;-76
2022/04/24 12:31:21;;;;;;;0.55;0.55;;;;;;;10.17;100.00;97462.47;5087553;28;20495;-76
2022/04/24 12:33:49;;;;;;;0.75;0.70;;;;;;;10.12;100.00;97467.72;5080049;28;20044;-76
2022/04/24 12:36:16;;;;;;;0.98;0.80;;;;;;;9.94;100.00;97471.25;5088218;28;20054;-76
2022/04/24 12:38:54;;;;;;;2.72;0.90;;;;;;;9.86;100.00;97453.34;5088550;28;20094;-76
2022/04/24 12:41:23;;;;;;;0.73;0.70;;;;;;;9.68;100.00;97451.41;5086597;28;20412;-76
2022/04/24 12:43:52;;;;;;;1.15;1.00;;;;;;;9.87;100.00;97461.28;5089843;28;20084;-76
2022/04/24 12:46:19;;;;;;;2.20;0.77;;;;;;;9.79;100.00;97458.03;5090085;28;20048;-76
2022/04/24 12:48:49;;;;;;;0.93;0.70;;;;;;;9.58;100.00;97462.78;5090756;28;20060;-76
2022/04/24 12:51:16;;;;;;;1.20;0.80;;;;;;;9.68;100.00;97452.25;5078329;28;20052;-76
2022/04/24 12:53:43;;;;;;;1.13;0.77;;;;;;;9.81;100.00;97464.88;5085525;28;20055;-76
2022/04/24 12:56:10;;;;;;;2.40;0.98;;;;;;;9.82;100.00;97466.53;5090518;28;20056;-76
2022/04/24 12:58:36;;;;;;;1.23;0.80;;;;;;;9.84;100.00;97464.44;5086798;28;20063;-76
2022/04/24 13:01:06;;;;;;;0.77;0.52;;;;;;;9.61;100.00;97445.22;5087261;28;20526;-76
2022/04/24 13:03:32;;;;;;;0.60;0.60;;;;;;;9.68;100.00;97475.84;5083581;28;20057;-76
2022/04/24 13:05:59;;;;;;;2.78;0.80;;;;;;;9.75;100.00;97468.47;5080498;28;20067;-76
2022/04/24 13:08:26;;;;;;;2.90;0.60;;;;;;;9.85;100.00;97463.38;5088068;28;20052;-76
2022/04/24 13:10:52;;;;;;;2.55;0.73;;;;;;;9.76;100.00;97475.56;5084282;28;20476;-76
2022/04/24 13:13:19;;;;;;;0.82;0.70;;;;;;;9.84;100.00;97463.59;5086418;28;20273;-76
2022/04/24 13:18:07;;;;;;;4.45;0.70;;;;;;;9.67;100.00;97485.03;5075946;28;20055;-76
2022/04/24 13:18:33;;;;;;;1.23;0.73;;;;;;;9.62;100.00;97469.44;5086154;28;20047;-76
2022/04/24 13:20:59;;;;;;;3.33;1.70;;;;;;;9.58;100.00;97479.06;5086977;28;20487;-76
2022/04/24 13:23:26;;;;;;;0.60;0.60;;;;;;;9.47;100.00;97488.72;5086360;28;20487;-76
2022/04/24 13:25:53;;;;;;;0.73;0.60;;;;;;;9.38;100.00;97493.56;5088035;28;20117;-76
2022/04/24 13:28:20;;;;;;;0.88;0.68;;;;;;;9.17;100.00;97472.22;5089272;28;20070;-76
2022/04/24 13:30:49;;;;;;;1.58;0.70;;;;;;;9.42;100.00;97488.53;5090126;28;20040;-76
2022/04/24 13:33:16;;;;;;;1.80;0.40;;;;;;;9.19;100.00;97492.63;5081240;28;20091;-75
2022/04/24 13:35:45;;;;;;;1.20;0.73;;;;;;;9.04;100.00;97468.53;5087349;28;20117;-76
2022/04/24 13:38:21;;;;;;;0.63;0.63;;;;;;;9.12;100.00;97510.00;5089885;28;20495;-76
2022/04/24 13:40:49;;;;;;;1.83;0.75;;;;;;;9.03;100.00;97493.13;5089559;28;20465;-76
2022/04/24 13:43:16;;;;;;;0.70;0.70;;;;;;;9.07;100.00;97494.38;5089458;28;20051;-75
2022/04/24 13:45:43;;;;;;;4.00;1.17;;;;;;;8.97;100.00;97483.16;5082432;28;20044;-75
2022/04/24 13:48:11;;;;;;;2.10;1.80;;;;;;;9.12;100.00;97508.13;5087671;28;20068;-76
2022/04/24 13:50:38;;;;;;;1.45;0.80;;;;;;;9.03;100.00;97495.84;5081583;28;20044;-76
2022/04/24 13:53:06;;;;;;;5.88;0.93;;;;;;;9.05;100.00;97515.44;5074538;28;20044;-75
2022/04/24 13:55:38;;;;;;;0.85;0.60;;;;;;;8.98;100.00;97520.88;5075589;28;20048;-76
2022/04/24 13:58:06;;;;;;;1.15;0.60;;;;;;;9.07;100.00;97517.94;5081389;28;20087;-76
2022/04/24 14:00:33;;;;;;;2.90;0.75;;;;;;;8.91;100.00;97509.22;5072852;28;20071;-76
2022/04/24 14:03:00;;;;;;;0.93;0.93;;;;;;;8.91;100.00;97521.97;5073063;28;20052;-76
2022/04/24 14:05:27;;;;;;;3.30;1.40;;;;;;;8.86;100.00;97528.84;5080250;28;20407;-76
2022/04/24 14:07:54;;;;;;;3.75;2.15;;;;;;;8.67;100.00;97508.06;5080860;28;20059;-76
2022/04/24 14:10:23;;;;;;;3.88;3.10;;;;;;;8.70;100.00;97520.38;5072585;28;20044;-76
2022/04/24 14:12:50;;;;;;;6.97;4.95;;;;;;;8.55;100.00;97526.03;5081021;28;20584;-76
2022/04/24 14:15:22;;;;;;;9.40;5.43;;;;;;;8.68;100.00;97544.97;5083247;28;20058;-76
2022/04/24 14:17:49;;;;;;;27.17;21.67;;;;;;;8.56;100.00;97535.84;5083218;28;20125;-76
2022/04/24 14:20:15;;;;;;;45.00;36.75;;;;;;;8.63;100.00;97531.25;5082886;28;20071;-76
2022/04/24 14:22:42;;;;;;;15.10;10.00;;;;;;;8.64;100.00;97550.00;5074176;28;20044;-76
2022/04/24 14:25:09;;;;;;;18.27;9.77;;;;;;;8.32;100.00;97524.59;5076019;28;20468;-76
2022/04/24 14:27:37;;;;;;;17.67;11.05;;;;;;;8.29;100.00;97555.63;5079610;28;20067;-75
2022/04/24 14:30:07;;;;;;;21.90;12.18;;;;;;;8.27;100.00;97527.94;5081439;28;20048;-76
2022/04/24 14:32:34;;;;;;;21.73;12.63;;;;;;;8.52;100.00;97562.53;5079007;28;20051;-76
2022/04/24 14:35:00;;;;;;;22.80;14.07;;;;;;;8.49;100.00;97562.91;5078509;28;20059;-76
2022/04/24 14:37:27;;;;;;;20.50;13.57;;;;;;;8.31;100.00;97542.72;5081427;28;20643;-76
2022/04/24 14:39:54;;;;;;;26.00;13.40;;;;;;;8.47;100.00;97552.28;5072177;28;20377;-76
2022/04/24 14:42:21;;;;;;;19.52;13.27;;;;;;;8.37;100.00;97545.63;5076005;28;20418;-76
2022/04/24 14:44:49;;;;;;;22.30;14.25;;;;;;;8.42;100.00;97546.66;5087665;28;20044;-76
2022/04/24 14:55:46;;;;;;;20.80;13.10;;;;;;;8.78;100.00;97563.50;5078724;28;20125;-75
2022/04/24 14:58:14;;;;;;;21.08;13.40;;;;;;;8.84;100.00;97566.19;5074286;28;20511;-76
2022/04/24 15:00:43;;;;;;;21.58;13.00;;;;;;;8.65;100.00;97562.47;5076661;28;20431;-76
2022/04/24 15:03:10;;;;;;;22.58;14.13;;;;;;;8.59;100.00;97547.06;5077850;28;20097;-76
2022/04/24 15:05:38;;;;;;;18.48;12.85;;;;;;;8.66;100.00;97571.44;5079720;28;20044;-76
2022/04/24 15:08:05;;;;;;;20.23;12.60;;;;;;;8.73;100.00;97566.84;5078967;28;20048;-76
2022/04/24 15:10:32;;;;;;;21.77;13.98;;;;;;;8.88;100.00;97569.28;5085160;28;20047;-76
2022/04/24 15:12:59;;;;;;;25.85;13.95;;;;;;;8.98;100.00;97588.66;5085916;28;20123;-76
2022/04/24 15:15:26;;;;;;;20.45;13.07;;;;;;;8.92;100.00;97573.25;5079630;28;20051;-76
2022/04/24 15:17:54;;;;;;;26.15;14.18;;;;;;;8.93;100.00;97593.88;5075528;28;20630;-76
2022/04/24 15:20:20;;;;;;;19.80;12.75;;;;;;;8.76;100.00;97576.41;5084745;28;20044;-76
2022/04/24 15:22:50;;;;;;;22.67;13.32;;;;;;;8.90;100.00;97588.91;5080067;28;20041;-76
2022/04/24 15:25:17;;;;;;;20.17;12.48;;;;;;;8.85;100.00;97589.53;5083302;28;20448;-76
2022/04/24 15:27:44;;;;;;;21.33;12.95;;;;;;;8.77;100.00;97573.50;5078031;28;20056;-76
2022/04/24 15:30:11;;;;;;;24.17;13.82;;;;;;;8.90;100.00;97599.72;5082981;28;20050;-76
2022/04/24 15:32:40;;;;;;;21.88;13.32;;;;;;;8.83;100.00;97586.19;5083568;28;20044;-76
2022/04/24 15:35:09;;;;;;;22.00;14.18;;;;;;;8.85;100.00;97607.66;5076900;28;20064;-76
2022/04/24 15:37:36;;;;;;;20.83;13.10;;;;;;;8.74;100.00;97603.72;5082467;28;20056;-76
2022/04/24 15:40:04;;;;;;;26.08;14.63;;;;;;;8.88;100.00;97609.13;5083984;28;20056;-76
2022/04/24 15:42:31;;;;;;;24.27;15.00;;;;;;;8.78;100.00;97594.13;5085027;28;20060;-76
2022/04/24 15:45:14;;;;;;;23.83;13.80;;;;;;;8.84;100.00;97617.66;5079294;28;20049;-76
2022/04/24 15:47:45;;;;;;;20.27;13.70;;;;;;;8.77;100.00;97606.00;5082798;28;20098;-76
2022/04/24 15:50:14;;;;;;;21.65;12.77;;;;;;;8.72;100.00;97605.00;5071848;28;20075;-76
2022/04/24 15:52:42;;;;;;;20.67;13.00;;;;;;;8.84;100.00;97623.09;5081551;28;20044;-76
2022/04/24 15:55:10;;;;;;;23.45;14.07;;;;;;;8.80;100.00;97611.00;5081132;28;20132;-76
2022/04/24 15:57:37;;;;;;;19.17;11.98;;;;;;;8.89;100.00;97624.34;5081343;28;20062;-76
2022/04/24 16:00:04;;;;;;;21.77;12.98;;;;;;;8.75;100.00;97599.97;5080536;28;20484;-76
2022/04/24 16:02:31;;;;;;;23.77;15.20;;;;;;;8.92;100.00;97627.44;5086233;28;20048;-76
2022/04/24 16:04:57;;;;;;;25.02;16.05;;;;;;;8.76;100.00;97625.19;5075319;28;20504;-76
2022/04/24 16:07:25;;;;;;;24.75;14.73;;;;;;;8.72;100.00;97607.72;5084843;28;20087;-76
2022/04/24 16:09:52;;;;;;;25.25;14.55;;;;;;;8.86;100.00;97626.41;5082490;28;20083;-76
2022/04/24 16:12:18;;;;;;;22.92;14.75;;;;;;;8.88;100.00;97625.38;5093450;28;20067;-76
2022/04/24 16:14:45;;;;;;;23.48;15.32;;;;;;;8.89;100.00;97602.66;5093007;28;20054;-76
2022/04/24 16:17:11;;;;;;;21.08;15.23;;;;;;;8.92;100.00;97629.34;5093187;28;20453;-76
2022/04/24 16:19:38;;;;;;;21.70;14.80;;;;;;;8.76;100.00;97600.78;5088634;28;20085;-76
2022/04/24 16:22:05;;;;;;;25.52;15.43;;;;;;;8.97;100.00;97627.66;5083586;28;20047;-76
2022/04/24 16:24:33;;;;;;;22.52;15.27;;;;;;;8.91;100.00;97619.53;5089941;28;20052;-76
2022/04/24 16:27:00;;;;;;;32.05;16.70;;;;;;;8.94;100.00;97629.94;5081711;28;20055;-76
2022/04/24 16:32:23;;;;;;;24.83;15.20;;;;;;;8.90;100.00;97624.13;5018711;28;20045;-76
2022/04/24 16:34:50;;;;;;;26.05;15.85;;;;;;;8.80;100.00;97618.31;5066304;28;20055;-76
2022/04/24 16:37:16;;;;;;;21.35;13.65;;;;;;;8.79;100.00;97624.75;5082385;28;20418;-76
2022/04/24 16:39:44;;;;;;;22.25;14.48;;;;;;;8.94;100.00;97635.38;5083363;28;20041;-76
2022/04/24 16:42:11;;;;;;;24.90;15.93;;;;;;;8.88;100.00;97642.47;5078531;28;20044;-76
2022/04/24 16:44:38;;;;;;;24.08;16.05;;;;;;;8.79;100.00;97631.03;5083448;28;20066;-76
2022/04/24 16:47:05;;;;;;;23.83;14.80;;;;;;;8.79;100.00;97633.75;5073875;28;20290;-76
2022/04/24 16:49:31;;;;;;;23.00;15.25;;;;;;;8.70;100.00;97626.03;5078701;28;20353;-76
2022/04/24 17:00:12;;;;;;;22.85;15.38;;;;;;;8.92;100.00;97659.97;5091195;28;20112;-76
2022/04/24 17:02:39;;;;;;;23.10;14.52;;;;;;;8.88;100.00;97653.28;5087539;28;20036;-76
2022/04/24 17:05:06;;;;;;;25.30;15.75;;;;;;;8.85;100.00;97651.00;5089013;28;20050;-76
2022/04/24 17:07:34;;;;;;;24.80;15.00;;;;;;;8.76;100.00;97652.28;5089631;28;20050;-76
2022/04/24 17:10:02;;;;;;;25.63;16.92;;;;;;;8.79;100.00;97659.97;5086091;28;20048;-76
2022/04/24 17:12:32;;;;;;;23.02;14.68;;;;;;;8.72;100.00;97649.16;5080673;28;20048;-75
2022/04/24 17:14:59;;;;;;;25.35;15.63;;;;;;;8.78;100.00;97659.16;5082750;28;20040;-76
2022/04/24 17:17:25;;;;;;;21.85;15.18;;;;;;;8.63;100.00;97648.53;5090824;28;20517;-76
2022/04/24 17:19:52;;;;;;;29.85;16.58;;;;;;;8.63;100.00;97653.97;5084000;28;20130;-76
2022/04/24 17:22:18;;;;;;;23.92;15.60;;;;;;;8.77;100.00;97668.31;5086441;28;20048;-76
2022/04/24 17:24:45;;;;;;;27.10;16.73;;;;;;;8.58;100.00;97647.50;5090716;28;20051;-76
2022/04/24 17:27:12;;;;;;;26.45;16.55;;;;;;;8.58;100.00;97647.50;5088295;28;20055;-76
2022/04/24 17:29:40;;;;;;;28.08;16.70;;;;;;;8.70;100.00;97672.91;5090711;28;20067;-76
2022/04/24 17:32:08;;;;;;;25.33;16.40;;;;;;;8.66;100.00;97672.50;5082897;28;20132;-76
2022/04/24 17:34:35;;;;;;;26.58;15.85;;;;;;;8.59;100.00;97654.59;5089984;28;20097;-76
2022/04/24 17:37:03;;;;;;;27.70;17.35;;;;;;;8.52;100.00;97651.91;5085848;28;20122;-76
2022/04/24 17:39:30;;;;;;;25.05;15.82;;;;;;;8.74;100.00;97685.00;5089927;28;20051;-76
2022/04/24 17:41:57;;;;;;;24.30;16.20;;;;;;;8.67;100.00;97673.31;5089205;28;20164;-76
2022/04/24 17:44:23;;;;;;;22.52;15.38;;;;;;;8.64;100.00;97654.78;5090535;28;20123;-76
2022/04/24 17:46:52;;;;;;;20.70;13.48;;;;;;;8.81;100.00;97691.25;5086632;28;20217;-76
2022/04/24 17:49:20;;;;;;;19.88;13.27;;;;;;;8.80;100.00;97677.91;5087772;28;20044;-76
2022/04/24 17:51:47;;;;;;;19.88;11.75;;;;;;;8.95;100.00;97683.13;5077801;28;20049;-76
2022/04/24 17:54:14;;;;;;;14.75;10.80;;;;;;;8.88;100.00;97687.72;5088818;28;20113;-76
2022/04/24 17:56:41;;;;;;;18.05;10.10;;;;;;;8.82;100.00;97676.69;5086454;28;20076;-77
2022/04/24 17:59:07;;;;;;;14.32;9.57;;;;;;;8.97;100.00;97690.00;5088521;28;20055;-76
2022/04/24 18:01:35;;;;;;;13.90;8.77;;;;;;;8.85;100.00;97668.13;5083665;28;20087;-77
2022/04/24 18:04:03;;;;;;;14.63;8.50;;;;;;;8.82;100.00;97668.53;5080819;28;20210;-76
2022/04/24 18:06:31;;;;;;;10.55;7.13;;;;;;;8.79;100.00;97689.78;5089017;28;20135;-76
2022/04/24 18:08:57;;;;;;;10.40;6.97;;;;;;;8.87;100.00;97703.13;5088157;28;20052;-77
2022/04/24 18:11:27;;;;;;;11.45;8.00;;;;;;;8.70;100.00;97677.50;5089330;28;20048;-76
2022/04/24 18:13:54;;;;;;;;;;;;;;;8.90;100.00;97700.00;5083429;28;20047;-76
2022/04/24 18:16:21;;;;;;;13.00;7.90;;;;;;;8.89;100.00;97701.03;5085012;28;20410;-77
2022/04/24 18:18:51;;;;;;;10.65;8.05;;;;;;;8.86;100.00;97701.47;5088858;28;20043;-77
2022/04/24 18:21:19;;;;;;;14.25;7.72;;;;;;;8.76;100.00;97703.75;5084633;28;20048;-76
2022/04/24 18:23:46;;;;;;;10.50;7.65;;;;;;;8.81;100.00;97710.22;5083567;28;20059;-76
2022/04/24 18:26:13;;;;;;;12.05;8.35;;;;;;;8.88;100.00;97714.81;5086343;28;20048;-76
2022/04/24 18:28:40;;;;;;;15.80;8.13;;;;;;;8.80;100.00;97703.13;5089848;28;20052;-76
2022/04/24 18:31:06;;;;;;;14.50;8.52;;;;;;;8.57;100.00;97697.31;5085356;28;20117;-76
2022/04/24 18:33:33;;;;;;;13.70;8.23;;;;;;;8.79;100.00;97733.16;5080247;28;20075;-76
2022/04/24 18:38:45;;;;;;;14.05;8.52;;;;;;;8.61;100.00;97714.81;5088569;28;20059;-76
2022/04/24 18:41:12;;;;;;;12.98;7.72;;;;;;;8.63;100.00;97710.03;5087233;28;20050;-76
2022/04/24 18:43:39;;;;;;;11.65;7.55;;;;;;;8.73;100.00;97734.84;5088403;28;20044;-76
2022/04/24 18:46:07;;;;;;;14.45;8.05;;;;;;;8.71;100.00;97730.66;5081232;28;20048;-78
2022/04/24 18:48:34;;;;;;;14.35;8.55;;;;;;;8.86;100.00;97751.06;5082668;28;20095;-76
2022/04/24 18:51:01;;;;;;;21.17;8.95;;;;;;;8.78;100.00;97745.88;5088250;28;20090;-76
2022/04/24 18:53:28;;;;;;;13.60;8.52;;;;;;;8.76;100.00;97755.25;5086056;28;20055;-76
2022/04/24 18:55:55;;;;;;;13.07;9.13;;;;;;;8.76;100.00;97761.50;5088432;28;20080;-76
2022/04/24 18:58:22;;;;;;;13.73;7.53;;;;;;;8.59;100.00;97738.56;5086958;28;20060;-76
2022/04/24 19:00:49;;;;;;;14.07;8.23;;;;;;;8.78;100.00;97762.13;5082126;28;20516;-76
2022/04/24 19:03:16;;;;;;;12.82;8.60;;;;;;;8.76;100.00;97764.22;5084491;28;20187;-76
2022/04/24 19:08:26;;;;;;;14.43;9.98;;;;;;;8.73;100.00;97755.66;5084736;28;20073;-78
2022/04/24 19:13:39;;;;;;;15.32;9.57;;;;;;;8.65;100.00;97770.25;5081043;28;20059;-77
2022/04/24 19:16:07;;;;;;;16.40;9.73;;;;;;;8.80;100.00;97778.19;5083378;28;20051;-76
2022/04/24 19:18:35;;;;;;;16.17;9.98;;;;;;;8.77;100.00;97781.31;5081211;28;20044;-76
2022/04/24 19:21:02;;;;;;;17.08;10.52;;;;;;;8.81;100.00;97777.97;5086155;28;20499;-76
2022/04/24 19:23:29;;;;;;;14.73;9.68;;;;;;;8.68;100.00;97769.81;5083543;28;20076;-76
2022/04/24 19:25:55;;;;;;;19.88;10.73;;;;;;;8.80;100.00;97795.25;5086831;28;20068;-76
2022/04/24 19:28:22;;;;;;;17.55;9.73;;;;;;;8.85;100.00;97797.34;5086005;28;20044;-76
2022/04/24 19:30:50;;;;;;;16.25;10.00;;;;;;;8.70;100.00;97799.44;5088526;28;20354;-76
2022/04/24 19:33:16;;;;;;;15.77;10.00;;;;;;;8.72;100.00;97792.78;5087102;28;20040;-76
2022/04/24 19:35:43;;;;;;;16.73;10.07;;;;;;;8.70;100.00;97794.81;5080373;28;20479;-76
2022/04/24 19:38:10;;;;;;;17.02;10.27;;;;;;;8.83;100.00;97804.88;5081034;28;20056;-76
2022/04/24 19:40:38;;;;;;;14.95;10.23;;;;;;;8.76;100.00;97807.59;5083388;28;20063;-76
2022/04/24 19:43:05;;;;;;;22.60;12.98;;;;;;;8.72;100.00;97825.28;5081917;28;20101;-76
2022/04/24 19:45:32;;;;;;;16.42;10.90;;;;;;;8.76;100.00;97829.25;5086928;28;20474;-77
2022/04/24 19:50:45;;;;;;;14.43;9.65;;;;;;;8.88;100.00;97831.34;5085625;28;20059;-76
2022/04/24 19:53:12;;;;;;;30.33;17.27;;;;;;;8.70;100.00;97811.09;5087641;28;20431;-76
2022/04/24 19:55:38;;;;;;;31.23;15.60;;;;;;;8.75;100.00;97833.00;5083428;28;20148;-77